createdAt,value
2022-12-11T00:00:53.579Z,2.36
2022-12-11T00:03:20.452Z,2.22
2022-12-11T00:05:47.285Z,2.10
2022-12-11T00:08:14.205Z,2.07
2022-12-11T00:10:47.440Z,2.13
2022-12-11T00:13:14.215Z,1.91
2022-12-11T00:15:40.934Z,2.15
2022-12-11T00:18:09.366Z,2.13
2022-12-11T00:20:38.458Z,2.09
2022-12-11T00:23:06.138Z,2.00
2022-12-11T00:25:32.980Z,1.94
2022-12-11T00:27:59.801Z,2.14
2022-12-11T00:30:26.552Z,2.33
2022-12-11T00:32:53.290Z,2.04
2022-12-11T00:35:20.085Z,2.16
2022-12-11T00:37:46.897Z,2.22
2022-12-11T00:40:13.794Z,2.27
2022-12-11T00:42:40.555Z,2.32
2022-12-11T00:45:07.745Z,2.16
2022-12-11T00:47:34.643Z,2.25
2022-12-11T00:50:01.390Z,2.44
2022-12-11T00:52:29.847Z,2.04
2022-12-11T00:54:56.561Z,2.43
2022-12-11T00:57:23.554Z,2.38
2022-12-11T00:59:50.547Z,2.18
2022-12-11T01:02:17.362Z,2.07
2022-12-11T01:04:44.169Z,2.10
2022-12-11T01:07:11.009Z,2.15
2022-12-11T01:09:56.374Z,2.15
2022-12-11T01:12:26.555Z,2.16
2022-12-11T01:14:53.472Z,2.15
2022-12-11T01:17:20.252Z,2.30
2022-12-11T01:19:47.034Z,2.08
2022-12-11T01:22:13.708Z,2.22
2022-12-11T01:24:44.802Z,2.27
2022-12-11T01:27:11.633Z,2.20
2022-12-11T01:29:38.353Z,2.26
2022-12-11T01:32:05.360Z,2.07
2022-12-11T01:34:32.537Z,2.49
2022-12-11T01:37:02.979Z,2.23
2022-12-11T01:39:29.720Z,2.45
2022-12-11T01:41:59.716Z,2.65
2022-12-11T01:44:27.057Z,2.63
2022-12-11T01:46:54.179Z,2.67
2022-12-11T01:49:23.132Z,2.34
2022-12-11T01:51:53.478Z,2.62
2022-12-11T01:54:22.052Z,2.34
2022-12-11T01:56:51.850Z,2.58
2022-12-11T01:59:20.285Z,2.86
2022-12-11T02:02:10.420Z,2.83
2022-12-11T02:04:57.826Z,2.27
2022-12-11T02:07:48.737Z,2.46
2022-12-11T02:10:55.846Z,2.48
2022-12-11T02:13:25.254Z,2.30
2022-12-11T02:16:13.333Z,2.29
2022-12-11T02:18:56.970Z,2.26
2022-12-11T02:21:30.102Z,2.24
2022-12-11T02:24:15.582Z,2.37
2022-12-11T02:26:42.245Z,2.49
2022-12-11T02:29:12.238Z,2.10
2022-12-11T02:31:41.839Z,2.24
2022-12-11T02:34:23.669Z,2.20
2022-12-11T02:36:57.236Z,2.12
2022-12-11T02:39:25.910Z,2.12
2022-12-11T02:41:53.533Z,2.22
2022-12-11T02:44:23.606Z,2.01
2022-12-11T02:46:51.224Z,1.86
2022-12-11T02:49:19.122Z,1.86
2022-12-11T02:51:46.016Z,2.07
2022-12-11T02:54:17.324Z,2.23
2022-12-11T02:56:47.323Z,2.38
2022-12-11T02:59:20.765Z,2.28
2022-12-11T03:01:48.355Z,2.21
2022-12-11T03:04:15.168Z,2.19
2022-12-11T03:06:44.794Z,2.16
2022-12-11T03:09:11.521Z,2.34
2022-12-11T03:11:38.332Z,2.35
2022-12-11T03:14:05.607Z,2.38
2022-12-11T03:16:39.292Z,2.32
2022-12-11T03:19:21.499Z,2.38
2022-12-11T03:21:56.900Z,2.11
2022-12-11T03:24:35.844Z,2.28
2022-12-11T03:27:09.611Z,2.40
2022-12-11T03:29:40.887Z,2.36
2022-12-11T03:32:14.133Z,2.42
2022-12-11T03:34:40.985Z,2.23
2022-12-11T03:37:11.274Z,2.30
2022-12-11T03:39:39.457Z,2.16
2022-12-11T03:42:08.414Z,2.08
2022-12-11T03:44:36.330Z,2.30
2022-12-11T03:47:07.451Z,2.12
2022-12-11T03:49:40.047Z,2.17
2022-12-11T03:52:07.426Z,2.24
2022-12-11T03:54:35.223Z,2.00
2022-12-11T03:57:04.378Z,1.91
2022-12-11T03:59:31.274Z,2.13
2022-12-11T04:01:58.266Z,2.10
2022-12-11T04:04:25.236Z,2.47
2022-12-11T04:06:54.588Z,2.13
2022-12-11T04:09:24.056Z,2.07
2022-12-11T04:11:50.795Z,2.10
2022-12-11T04:14:35.950Z,2.15
2022-12-11T04:17:02.749Z,2.25
2022-12-11T04:19:48.165Z,2.34
2022-12-11T04:22:34.896Z,2.27
2022-12-11T04:25:03.000Z,2.57
2022-12-11T04:27:49.845Z,2.56
2022-12-11T04:30:20.531Z,2.33
2022-12-11T04:32:47.438Z,2.22
2022-12-11T04:35:14.687Z,2.64
2022-12-11T04:37:41.721Z,2.35
2022-12-11T04:40:10.782Z,2.42
2022-12-11T04:42:37.727Z,1.98
2022-12-11T04:45:05.444Z,2.26
2022-12-11T04:47:32.468Z,2.14
2022-12-11T04:49:59.240Z,2.39
2022-12-11T04:52:26.194Z,2.36
2022-12-11T04:55:13.429Z,2.31
2022-12-11T04:58:02.650Z,2.00
2022-12-11T05:00:30.884Z,2.32
2022-12-11T05:02:57.703Z,2.19
2022-12-11T05:05:26.366Z,2.34
2022-12-11T05:07:55.147Z,2.27
2022-12-11T05:10:21.847Z,2.47
2022-12-11T05:12:48.589Z,2.38
2022-12-11T05:15:15.538Z,2.37
2022-12-11T05:17:42.320Z,2.58
2022-12-11T05:20:10.056Z,2.56
2022-12-11T05:22:37.478Z,2.61
2022-12-11T05:25:04.475Z,2.46
2022-12-11T05:27:31.198Z,2.51
2022-12-11T05:29:59.719Z,2.40
2022-12-11T05:32:27.143Z,2.84
2022-12-11T05:34:53.920Z,2.39
2022-12-11T05:37:22.008Z,2.34
2022-12-11T05:39:48.990Z,2.17
2022-12-11T05:42:15.654Z,2.19
2022-12-11T05:44:42.385Z,2.25
2022-12-11T05:47:09.237Z,2.58
2022-12-11T05:49:36.020Z,2.76
2022-12-11T05:52:03.161Z,2.23
2022-12-11T05:54:31.609Z,2.20
2022-12-11T05:56:59.996Z,2.18
2022-12-11T05:59:26.750Z,2.14
2022-12-11T06:01:53.758Z,2.12
2022-12-11T06:04:20.817Z,2.39
2022-12-11T06:06:54.917Z,2.20
2022-12-11T06:09:21.600Z,2.23
2022-12-11T06:11:48.429Z,2.37
2022-12-11T06:14:15.227Z,2.43
2022-12-11T06:16:42.077Z,2.52
2022-12-11T06:19:13.599Z,2.19
2022-12-11T06:21:42.328Z,2.25
2022-12-11T06:24:10.727Z,2.71
2022-12-11T06:26:37.425Z,2.72
2022-12-11T06:29:07.643Z,2.03
2022-12-11T06:31:37.739Z,2.44
2022-12-11T06:34:04.632Z,2.18
2022-12-11T06:36:31.448Z,2.34
2022-12-11T06:38:58.277Z,2.35
2022-12-11T06:41:25.424Z,2.46
2022-12-11T06:43:52.252Z,2.30
2022-12-11T06:46:20.186Z,2.49
2022-12-11T06:48:47.765Z,2.20
2022-12-11T06:51:16.405Z,2.09
2022-12-11T06:53:44.274Z,2.34
2022-12-11T06:56:15.372Z,2.32
2022-12-11T06:58:42.680Z,2.24
2022-12-11T07:01:20.220Z,2.09
2022-12-11T07:03:47.197Z,2.24
2022-12-11T07:06:14.218Z,2.31
2022-12-11T07:08:41.117Z,2.44
2022-12-11T07:11:13.816Z,2.47
2022-12-11T07:13:42.390Z,2.39
2022-12-11T07:16:13.584Z,2.19
2022-12-11T07:18:42.512Z,2.34
2022-12-11T07:21:12.192Z,2.40
2022-12-11T07:23:39.478Z,2.30
2022-12-11T07:26:12.094Z,1.99
2022-12-11T07:28:59.486Z,1.86
2022-12-11T07:31:27.854Z,2.56
2022-12-11T07:34:06.787Z,2.11
2022-12-11T07:36:41.453Z,1.79
2022-12-11T07:39:28.297Z,2.17
2022-12-11T07:42:04.434Z,1.99
2022-12-11T07:44:31.478Z,1.89
2022-12-11T07:47:08.643Z,1.77
2022-12-11T07:49:55.606Z,2.13
2022-12-11T07:52:27.518Z,2.12
2022-12-11T07:55:12.788Z,2.03
2022-12-11T07:57:59.613Z,2.13
2022-12-11T08:00:29.108Z,2.00
2022-12-11T08:03:15.877Z,2.23
2022-12-11T08:05:47.227Z,2.36
2022-12-11T08:08:16.561Z,2.42
2022-12-11T08:10:45.111Z,2.64
2022-12-11T08:13:12.500Z,2.37
2022-12-11T08:15:39.314Z,2.44
2022-12-11T08:18:08.595Z,2.18
2022-12-11T08:20:37.945Z,2.32
2022-12-11T08:23:05.688Z,2.34
2022-12-11T08:25:33.008Z,2.27
2022-12-11T08:28:03.403Z,2.20
2022-12-11T08:30:40.890Z,2.39
2022-12-11T08:33:27.644Z,2.44
2022-12-11T08:36:04.219Z,2.62
2022-12-11T08:38:31.521Z,2.38
2022-12-11T08:40:58.313Z,2.53
2022-12-11T08:43:28.208Z,2.60
2022-12-11T08:45:55.112Z,2.56
2022-12-11T08:48:21.894Z,2.25
2022-12-11T08:50:49.276Z,2.34
2022-12-11T08:53:17.201Z,2.56
2022-12-11T08:55:44.098Z,2.43
2022-12-11T08:58:13.100Z,2.36
2022-12-11T09:00:40.595Z,2.42
2022-12-11T09:03:12.511Z,2.58
2022-12-11T09:05:40.519Z,2.55
2022-12-11T09:08:08.584Z,2.66
2022-12-11T09:10:44.811Z,2.45
2022-12-11T09:13:11.655Z,2.76
2022-12-11T09:15:41.674Z,3.09
2022-12-11T09:18:28.455Z,3.17
2022-12-11T09:21:16.307Z,3.50
2022-12-11T09:23:45.705Z,3.29
2022-12-11T09:26:13.865Z,3.38
2022-12-11T09:28:45.789Z,3.48
2022-12-11T09:31:18.071Z,3.20
2022-12-11T09:33:45.704Z,3.59
2022-12-11T09:36:12.594Z,2.96
2022-12-11T09:38:39.880Z,3.21
2022-12-11T09:41:38.966Z,3.53
2022-12-11T09:44:15.147Z,3.49
2022-12-11T09:46:42.752Z,3.84
2022-12-11T09:49:20.861Z,3.92
2022-12-11T09:51:51.625Z,4.19
2022-12-11T09:54:18.646Z,3.77
2022-12-11T09:56:57.692Z,4.19
2022-12-11T09:59:31.812Z,4.06
2022-12-11T10:02:04.743Z,4.39
2022-12-11T10:04:37.492Z,4.05
2022-12-11T10:07:18.968Z,4.36
2022-12-11T10:09:51.954Z,4.17
2022-12-11T10:12:41.552Z,4.20
2022-12-11T10:15:21.688Z,4.60
2022-12-11T10:17:48.541Z,4.28
2022-12-11T10:20:22.549Z,4.66
2022-12-11T10:22:51.152Z,4.46
2022-12-11T10:25:23.105Z,5.07
2022-12-11T10:27:51.138Z,4.92
2022-12-11T10:30:22.853Z,4.15
2022-12-11T10:32:55.393Z,4.61
2022-12-11T10:35:34.113Z,4.87
2022-12-11T10:38:13.262Z,5.68
2022-12-11T10:40:43.281Z,5.17
2022-12-11T10:45:58.378Z,4.84
2022-12-11T10:48:26.097Z,5.58
2022-12-11T10:51:12.904Z,5.96
2022-12-11T10:54:22.648Z,4.84
2022-12-11T10:56:50.009Z,5.42
2022-12-11T10:59:24.221Z,6.25
2022-12-11T11:02:22.984Z,5.97
2022-12-11T11:05:17.651Z,6.38
2022-12-11T11:08:05.001Z,5.58
2022-12-11T11:10:31.975Z,6.20
2022-12-11T11:13:03.657Z,5.79
2022-12-11T11:15:31.230Z,5.97
2022-12-11T11:18:26.877Z,5.21
2022-12-11T11:20:59.109Z,5.65
2022-12-11T11:23:26.588Z,5.47
2022-12-11T11:25:54.923Z,5.62
2022-12-11T11:28:27.423Z,4.98
2022-12-11T11:30:56.937Z,5.60
2022-12-11T11:33:24.359Z,5.73
2022-12-11T11:36:20.682Z,5.70
2022-12-11T11:39:19.272Z,4.77
2022-12-11T11:41:51.120Z,5.07
2022-12-11T11:44:22.743Z,5.28
2022-12-11T11:46:54.240Z,4.86
2022-12-11T11:50:03.709Z,4.30
2022-12-11T11:52:56.340Z,4.64
2022-12-11T11:55:42.649Z,4.53
2022-12-11T11:58:15.228Z,4.37
2022-12-11T12:00:42.261Z,4.18
2022-12-11T12:03:11.046Z,4.45
2022-12-11T12:05:47.102Z,4.49
2022-12-11T12:08:23.059Z,4.18
2022-12-11T12:11:03.745Z,4.46
2022-12-11T12:13:49.423Z,4.86
2022-12-11T12:16:51.539Z,4.82
2022-12-11T12:19:09.145Z,4.35
2022-12-11T12:21:37.080Z,4.48
2022-12-11T12:24:19.088Z,4.45
2022-12-11T12:26:54.892Z,4.39
2022-12-11T12:29:36.891Z,4.41
2022-12-11T12:32:03.702Z,4.73
2022-12-11T12:34:51.681Z,4.90
2022-12-11T12:37:30.435Z,4.99
2022-12-11T12:40:04.572Z,5.17
2022-12-11T12:42:43.484Z,5.00
2022-12-11T12:45:13.502Z,4.20
2022-12-11T12:47:42.445Z,4.18
2022-12-11T12:50:21.132Z,4.15
2022-12-11T12:52:48.936Z,4.08
2022-12-11T12:55:22.880Z,4.42
2022-12-11T12:57:49.798Z,4.06
2022-12-11T13:00:30.646Z,4.16
2022-12-11T13:02:58.544Z,3.93
2022-12-11T13:05:28.168Z,3.92
2022-12-11T13:07:57.642Z,4.02
2022-12-11T13:10:35.581Z,4.19
2022-12-11T13:13:03.721Z,4.70
2022-12-11T13:15:33.168Z,4.33
2022-12-11T13:18:00.988Z,4.50
2022-12-11T13:20:29.195Z,4.53
2022-12-11T13:23:07.800Z,4.13
2022-12-11T13:25:46.908Z,3.95
2022-12-11T13:28:22.687Z,4.16
2022-12-11T13:31:04.215Z,4.32
2022-12-11T13:33:31.879Z,3.87
2022-12-11T13:36:16.768Z,3.65
2022-12-11T13:38:57.765Z,4.16
2022-12-11T13:41:25.010Z,4.24
2022-12-11T13:43:52.601Z,4.20
2022-12-11T13:46:28.258Z,4.29
2022-12-11T13:49:01.561Z,4.00
2022-12-11T13:51:31.683Z,3.91
2022-12-11T13:54:18.475Z,3.98
2022-12-11T13:56:55.125Z,3.54
2022-12-11T13:59:37.467Z,3.73
2022-12-11T14:02:13.595Z,3.60
2022-12-11T14:04:40.546Z,3.50
2022-12-11T14:07:08.704Z,3.61
2022-12-11T14:09:37.992Z,3.62
2022-12-11T14:12:04.829Z,3.37
2022-12-11T14:14:31.549Z,3.82
2022-12-11T14:16:58.493Z,3.48
2022-12-11T14:19:25.558Z,3.83
2022-12-11T14:21:56.881Z,3.28
2022-12-11T14:24:24.730Z,3.09
2022-12-11T14:26:54.605Z,3.16
2022-12-11T14:29:30.024Z,3.10
2022-12-11T14:31:59.822Z,3.09
2022-12-11T14:34:30.424Z,3.14
2022-12-11T14:36:58.217Z,3.14
2022-12-11T14:39:29.184Z,2.93
2022-12-11T14:42:13.613Z,2.95
2022-12-11T14:44:55.527Z,2.85
2022-12-11T14:47:24.761Z,2.65
2022-12-11T14:50:15.887Z,3.05
2022-12-11T14:52:49.853Z,2.86
2022-12-11T14:55:29.397Z,3.00
2022-12-11T14:58:02.002Z,2.57
2022-12-11T15:00:30.498Z,2.43
2022-12-11T15:03:04.985Z,2.13
2022-12-11T15:05:38.832Z,2.61
2022-12-11T15:08:17.479Z,2.72
2022-12-11T15:11:00.287Z,2.71
2022-12-11T15:13:27.079Z,2.66
2022-12-11T15:15:55.606Z,2.60
2022-12-11T15:18:24.666Z,2.44
2022-12-11T15:20:54.549Z,2.33
2022-12-11T15:23:21.491Z,2.39
2022-12-11T15:25:56.430Z,2.42
2022-12-11T15:28:30.222Z,2.52
2022-12-11T15:31:04.471Z,2.49
2022-12-11T15:33:40.721Z,2.25
2022-12-11T15:36:21.772Z,2.15
2022-12-11T15:38:52.518Z,2.19
2022-12-11T15:41:21.706Z,2.02
2022-12-11T15:43:51.791Z,2.18
2022-12-11T15:46:22.318Z,2.13
2022-12-11T15:48:53.169Z,1.70
2022-12-11T15:51:20.007Z,1.91
2022-12-11T15:53:46.700Z,1.66
2022-12-11T15:56:16.263Z,2.02
2022-12-11T15:58:44.878Z,1.92
2022-12-11T16:01:12.947Z,1.59
2022-12-11T16:03:40.784Z,1.79
2022-12-11T16:06:10.277Z,1.70
2022-12-11T16:08:38.187Z,1.76
2022-12-11T16:11:07.015Z,1.69
2022-12-11T16:13:33.857Z,1.94
2022-12-11T16:16:00.620Z,2.04
2022-12-11T16:18:29.059Z,2.17
2022-12-11T16:20:56.245Z,2.13
2022-12-11T16:23:22.977Z,1.84
2022-12-11T16:25:50.030Z,1.97
2022-12-11T16:28:20.912Z,1.83
2022-12-11T16:30:47.822Z,2.08
2022-12-11T16:33:14.810Z,2.28
2022-12-11T16:35:45.428Z,2.07
2022-12-11T16:38:12.265Z,2.20
2022-12-11T16:40:39.236Z,1.81
2022-12-11T16:43:06.239Z,1.85
2022-12-11T16:45:33.024Z,1.77
2022-12-11T16:48:04.463Z,1.84
2022-12-11T16:50:34.872Z,1.62
2022-12-11T16:53:22.075Z,1.49
2022-12-11T16:55:49.349Z,1.46
2022-12-11T16:58:21.908Z,1.73
2022-12-11T17:00:49.948Z,1.78
2022-12-11T17:03:19.391Z,1.79
2022-12-11T17:05:57.318Z,2.04
2022-12-11T17:08:33.305Z,1.91
2022-12-11T17:11:03.648Z,1.99
2022-12-11T17:13:36.269Z,1.52
2022-12-11T17:16:11.113Z,2.00
2022-12-11T17:18:38.879Z,1.99
2022-12-11T17:21:07.162Z,1.94
2022-12-11T17:23:34.428Z,2.00
2022-12-11T17:26:02.851Z,2.07
2022-12-11T17:28:29.814Z,1.77
2022-12-11T17:30:59.774Z,1.56
2022-12-11T17:33:29.819Z,1.84
2022-12-11T17:35:59.815Z,1.63
2022-12-11T17:38:28.269Z,1.93
2022-12-11T17:40:59.951Z,2.00
2022-12-11T17:43:26.745Z,1.91
2022-12-11T17:45:55.927Z,2.01
2022-12-11T17:48:22.989Z,1.97
2022-12-11T17:50:50.384Z,2.12
2022-12-11T17:53:25.199Z,2.08
2022-12-11T17:55:52.284Z,1.68
2022-12-11T17:58:20.702Z,1.77
2022-12-11T18:00:49.362Z,1.56
2022-12-11T18:03:19.354Z,1.43
2022-12-11T18:05:47.580Z,1.80
2022-12-11T18:08:15.434Z,2.10
2022-12-11T18:10:43.034Z,2.09
2022-12-11T18:13:30.022Z,1.92
2022-12-11T18:16:18.678Z,2.17
2022-12-11T18:18:47.461Z,2.01
2022-12-11T18:21:35.569Z,1.28
2022-12-11T18:24:12.086Z,1.65
2022-12-11T18:26:59.616Z,1.94
2022-12-11T18:29:27.229Z,1.62
2022-12-11T18:31:55.409Z,1.71
2022-12-11T18:34:22.284Z,1.74
2022-12-11T18:37:09.253Z,1.63
2022-12-11T18:39:45.720Z,1.78
2022-12-11T18:42:33.758Z,1.80
2022-12-11T18:45:19.866Z,1.51
2022-12-11T18:47:52.134Z,1.65
2022-12-11T18:50:37.211Z,1.69
2022-12-11T18:53:24.397Z,1.67
2022-12-11T18:56:16.569Z,1.40
2022-12-11T18:58:55.124Z,1.38
2022-12-11T19:01:26.319Z,1.68
2022-12-11T19:03:57.603Z,1.34
2022-12-11T19:06:30.392Z,1.75
2022-12-11T19:08:57.737Z,1.79
2022-12-11T19:11:26.955Z,1.30
2022-12-11T19:13:57.058Z,1.51
2022-12-11T19:16:46.071Z,1.59
2022-12-11T19:19:22.564Z,1.77
2022-12-11T19:21:50.410Z,1.78
2022-12-11T19:24:20.505Z,2.12
2022-12-11T19:26:52.229Z,1.87
2022-12-11T19:29:23.534Z,1.95
2022-12-11T19:31:50.873Z,1.83
2022-12-11T19:34:19.130Z,1.56
2022-12-11T19:36:46.510Z,1.35
2022-12-11T19:39:14.712Z,1.69
2022-12-11T19:41:42.101Z,1.35
2022-12-11T19:44:11.727Z,1.49
2022-12-11T19:46:38.993Z,1.03
2022-12-11T19:49:07.246Z,1.08
2022-12-11T19:51:36.722Z,1.08
2022-12-11T19:54:03.740Z,1.29
2022-12-11T19:56:31.204Z,0.88
2022-12-11T19:58:58.272Z,1.22
2022-12-11T20:01:31.278Z,0.85
2022-12-11T20:04:17.525Z,0.62
2022-12-11T20:06:47.336Z,0.84
2022-12-11T20:09:14.769Z,0.73
2022-12-11T20:11:42.704Z,0.66
2022-12-11T20:14:09.646Z,0.75
2022-12-11T20:17:09.445Z,0.61
2022-12-11T20:19:25.023Z,0.74
2022-12-11T20:21:51.751Z,0.89
2022-12-11T20:24:18.484Z,1.08
2022-12-11T20:26:47.341Z,0.78
2022-12-11T20:29:14.421Z,0.66
2022-12-11T20:31:41.246Z,0.71
2022-12-11T20:34:08.681Z,0.56
2022-12-11T20:36:35.547Z,0.59
2022-12-11T20:39:02.533Z,0.64
2022-12-11T20:41:29.593Z,0.51
2022-12-11T20:43:56.354Z,0.81
2022-12-11T20:46:26.056Z,0.36
2022-12-11T20:48:53.855Z,0.68
2022-12-11T20:51:25.658Z,1.25
2022-12-11T20:53:58.913Z,0.52
2022-12-11T20:56:28.021Z,1.23
2022-12-11T20:58:55.376Z,0.80
2022-12-11T21:01:23.751Z,0.94
2022-12-11T21:03:50.958Z,0.44
2022-12-11T21:06:21.948Z,0.38
2022-12-11T21:08:50.238Z,0.37
2022-12-11T21:11:17.185Z,0.86
2022-12-11T21:13:44.032Z,0.78
2022-12-11T21:16:11.525Z,0.76
2022-12-11T21:18:38.713Z,0.73
2022-12-11T21:21:05.559Z,0.72
2022-12-11T21:23:32.852Z,0.82
2022-12-11T21:25:59.823Z,0.74
2022-12-11T21:28:30.623Z,1.49
2022-12-11T21:31:01.848Z,1.30
2022-12-11T21:33:37.846Z,0.57
2022-12-11T21:36:06.542Z,0.60
2022-12-11T21:38:34.395Z,0.46
2022-12-11T21:41:15.949Z,0.58
2022-12-11T21:44:14.507Z,0.30
2022-12-11T21:46:31.624Z,0.58
2022-12-11T21:49:08.848Z,0.25
2022-12-11T21:51:55.650Z,0.73
2022-12-11T21:54:22.677Z,1.08
2022-12-11T21:56:49.577Z,1.01
2022-12-11T21:59:16.403Z,1.00
2022-12-11T22:01:46.116Z,1.39
2022-12-11T22:04:14.071Z,1.49
2022-12-11T22:06:43.170Z,1.34
2022-12-11T22:09:10.680Z,1.21
2022-12-11T22:11:37.444Z,1.31
2022-12-11T22:14:04.612Z,0.93
2022-12-11T22:16:31.368Z,0.80
2022-12-11T22:18:58.349Z,0.89
2022-12-11T22:21:25.247Z,1.01
2022-12-11T22:23:51.967Z,1.55
2022-12-11T22:26:20.309Z,1.01
2022-12-11T22:28:47.581Z,0.81
2022-12-11T22:31:17.026Z,0.63
2022-12-11T22:33:43.836Z,1.05
2022-12-11T22:36:11.014Z,0.86
2022-12-11T22:38:39.823Z,1.14
2022-12-11T22:41:22.709Z,0.90
2022-12-11T22:43:50.996Z,0.82
2022-12-11T22:46:18.610Z,1.05
2022-12-11T22:48:45.551Z,0.83
2022-12-11T22:51:12.448Z,0.52
2022-12-11T22:53:40.977Z,0.52
2022-12-11T22:56:09.095Z,0.59
2022-12-11T22:58:35.877Z,0.90
2022-12-11T23:01:13.968Z,0.65
2022-12-11T23:03:43.202Z,0.86
2022-12-11T23:06:11.493Z,0.93
2022-12-11T23:08:45.053Z,0.75
2022-12-11T23:11:31.759Z,0.80
2022-12-11T23:13:58.907Z,0.23
2022-12-11T23:16:27.840Z,0.71
2022-12-11T23:18:55.445Z,0.83
2022-12-11T23:21:24.011Z,1.36
2022-12-11T23:23:50.977Z,1.04
2022-12-11T23:26:18.934Z,0.82
2022-12-11T23:28:46.148Z,1.47
2022-12-11T23:31:13.268Z,0.80
2022-12-11T23:33:40.072Z,0.78
2022-12-11T23:36:07.240Z,0.69
2022-12-11T23:38:34.058Z,0.98
2022-12-11T23:41:01.296Z,1.02
2022-12-11T23:43:28.030Z,0.78
2022-12-11T23:45:54.852Z,0.84
2022-12-11T23:48:21.566Z,1.80
2022-12-11T23:50:48.447Z,1.77
2022-12-11T23:53:18.392Z,2.01
2022-12-11T23:55:45.431Z,1.30
2022-12-11T23:58:12.339Z,1.79
